Time;durP1;ratioP1;P1;durP2;ratioP2;P2;SDS_P1;SDS_P2;PMS_P1;PMS_P2;Temp;Humidity;BMP_temperature;BMP_pressure;BME280_temperature;BME280_humidity;BME280_pressure;Samples;Min_cycle;Max_cycle;Signal;HPM_P1;HPM_P2
2024/02/17 00:00:49;;;;;;;8.73;7.30;;;;;;;12.82;100.00;154652.31;5117839;27;20463;-76
2024/02/17 00:03:22;;;;;;;8.30;7.50;;;;;;;12.82;100.00;154652.31;5123977;27;20455;-76
2024/02/17 00:05:48;;;;;;;7.80;7.10;;;;;;;12.80;100.00;154648.47;5125869;27;20436;-76
2024/02/17 00:08:17;;;;;;;9.20;7.43;;;;;;;12.81;100.00;154649.75;5124613;27;20478;-76
2024/02/17 00:10:43;;;;;;;7.33;6.40;;;;;;;12.82;100.00;154652.31;5137472;27;20933;-76
2024/02/17 00:13:10;;;;;;;8.57;7.70;;;;;;;12.85;100.00;154660.13;5128001;27;20447;-76
2024/02/17 00:15:36;;;;;;;8.30;7.43;;;;;;;12.83;100.00;154654.94;5120528;27;20450;-76
2024/02/17 00:18:05;;;;;;;10.17;7.83;;;;;;;12.81;100.00;154649.75;5128455;27;20516;-76
2024/02/17 00:20:31;;;;;;;9.30;7.47;;;;;;;12.78;100.00;154643.28;5130043;27;20491;-76
2024/02/17 00:22:58;;;;;;;7.37;6.50;;;;;;;12.78;100.00;154641.97;5128396;27;20459;-76
2024/02/17 00:25:26;;;;;;;9.63;7.07;;;;;;;12.79;100.00;154644.53;5126575;27;20455;-77
2024/02/17 00:27:52;;;;;;;9.00;8.10;;;;;;;12.77;100.00;154640.66;5123443;27;20559;-76
2024/02/17 00:30:20;;;;;;;8.03;6.70;;;;;;;12.74;100.00;154632.88;5126148;27;20440;-76
2024/02/17 00:32:47;;;;;;;8.20;6.60;;;;;;;12.75;100.00;154634.19;5120479;27;20977;-76
2024/02/17 00:35:14;;;;;;;8.53;7.03;;;;;;;12.77;100.00;154639.38;5127511;27;20879;-76
2024/02/17 00:37:39;;;;;;;8.50;6.87;;;;;;;12.76;100.00;154636.81;5127803;27;20459;-76
2024/02/17 00:40:07;;;;;;;7.47;6.10;;;;;;;12.76;100.00;154636.81;5126906;27;20463;-76
2024/02/17 00:42:35;;;;;;;6.60;5.90;;;;;;;12.75;100.00;154635.50;5124271;27;20283;-76
2024/02/17 00:45:02;;;;;;;8.30;6.30;;;;;;;12.72;100.00;154626.41;5127287;27;20452;-76
2024/02/17 00:47:28;;;;;;;7.17;6.10;;;;;;;12.70;100.00;154622.53;5150022;27;20451;-76
2024/02/17 00:49:55;;;;;;;7.90;6.67;;;;;;;12.72;100.00;154627.72;5111262;27;20427;-76
2024/02/17 00:52:21;;;;;;;7.80;7.00;;;;;;;12.67;100.00;154613.44;5127843;27;20446;-76
2024/02/17 00:54:48;;;;;;;10.13;6.90;;;;;;;12.68;100.00;154616.03;5122255;27;20451;-76
2024/02/17 00:57:14;;;;;;;7.80;6.93;;;;;;;12.69;100.00;154619.91;5123237;27;20447;-77
2024/02/17 00:59:42;;;;;;;13.37;8.23;;;;;;;12.74;100.00;154632.88;5125020;27;20499;-76
2024/02/17 01:02:09;;;;;;;9.60;7.43;;;;;;;12.71;100.00;154623.78;5119164;27;20448;-76
2024/02/17 01:04:36;;;;;;;11.60;8.20;;;;;;;12.71;100.00;154623.78;5121423;27;20483;-76
2024/02/17 01:07:02;;;;;;;9.17;7.50;;;;;;;12.71;100.00;154623.78;5126801;27;20534;-76
2024/02/17 01:09:29;;;;;;;9.53;7.43;;;;;;;12.68;100.00;154616.03;5126803;27;20454;-77
2024/02/17 01:11:55;;;;;;;8.13;6.90;;;;;;;12.64;100.00;154605.66;5125398;27;20507;-77
2024/02/17 01:14:22;;;;;;;8.97;6.70;;;;;;;12.62;100.00;154600.47;5126975;27;20882;-76
2024/02/17 01:16:50;;;;;;;9.00;7.23;;;;;;;12.62;100.00;154600.47;5127154;27;20558;-77
2024/02/17 01:19:16;;;;;;;8.00;7.00;;;;;;;12.63;100.00;154603.03;5127849;27;20486;-77
2024/02/17 01:21:43;;;;;;;8.00;7.17;;;;;;;12.64;100.00;154605.66;5125921;27;20514;-76
2024/02/17 01:24:10;;;;;;;12.63;7.17;;;;;;;12.66;100.00;154612.13;5123330;27;20459;-76
2024/02/17 01:26:36;;;;;;;9.03;7.50;;;;;;;12.63;100.00;154603.03;5127959;27;20542;-78
2024/02/17 01:29:03;;;;;;;8.00;6.93;;;;;;;12.65;100.00;154608.25;5093938;28;20565;-78
2024/02/17 01:31:30;;;;;;;8.53;7.30;;;;;;;12.64;100.00;154605.66;5121530;27;20447;-78
2024/02/17 01:33:57;;;;;;;8.50;7.40;;;;;;;12.64;100.00;154605.66;5102783;28;20456;-78
2024/02/17 01:36:26;;;;;;;8.37;6.93;;;;;;;12.62;100.00;154600.47;5119592;27;20790;-78
2024/02/17 01:38:52;;;;;;;10.63;7.93;;;;;;;12.60;100.00;154595.28;5126272;27;20559;-78
2024/02/17 01:41:19;;;;;;;9.23;7.27;;;;;;;12.60;100.00;154596.56;5118373;27;20452;-78
2024/02/17 01:43:45;;;;;;;10.37;8.17;;;;;;;12.59;100.00;154592.69;5123832;27;20466;-78
2024/02/17 01:46:12;;;;;;;8.47;7.27;;;;;;;12.59;100.00;154592.69;5125926;27;20451;-78
2024/02/17 01:48:38;;;;;;;8.00;7.20;;;;;;;12.60;100.00;154595.28;5126695;27;20469;-78
2024/02/17 01:51:09;;;;;;;8.50;7.07;;;;;;;12.59;100.00;154594.00;5125946;27;20435;-78
2024/02/17 01:53:35;;;;;;;8.70;6.80;;;;;;;12.56;100.00;154584.91;5122929;27;20451;-78
2024/02/17 01:56:02;;;;;;;6.60;5.83;;;;;;;12.53;100.00;154577.09;5115910;27;20455;-78
2024/02/17 01:58:29;;;;;;;7.83;6.20;;;;;;;12.53;100.00;154577.09;5119772;27;20459;-78
2024/02/17 02:00:55;;;;;;;7.40;6.20;;;;;;;12.54;100.00;154579.72;5118529;27;20536;-78
2024/02/17 02:03:22;;;;;;;7.27;6.30;;;;;;;12.53;100.00;154578.41;5114015;27;20456;-78
2024/02/17 02:05:49;;;;;;;8.70;6.90;;;;;;;12.54;100.00;154581.03;5121862;27;20452;-78
2024/02/17 02:08:17;;;;;;;7.47;6.77;;;;;;;12.52;100.00;154575.78;5121752;27;20470;-78
2024/02/17 02:10:43;;;;;;;7.03;5.80;;;;;;;12.52;100.00;154574.53;5123981;27;20447;-78
2024/02/17 02:13:10;;;;;;;7.67;6.20;;;;;;;12.52;100.00;154575.78;5124333;27;20455;-78
2024/02/17 02:15:41;;;;;;;7.10;6.07;;;;;;;12.50;100.00;154569.31;5121272;27;20504;-78
2024/02/17 02:18:08;;;;;;;9.57;6.47;;;;;;;12.47;100.00;154561.59;5120731;27;20451;-78
2024/02/17 02:20:34;;;;;;;6.80;6.10;;;;;;;12.50;100.00;154569.31;5104212;27;20468;-78
2024/02/17 02:23:01;;;;;;;7.10;5.70;;;;;;;12.50;100.00;154569.31;5118157;27;20456;-79
2024/02/17 02:25:29;;;;;;;6.03;4.87;;;;;;;12.52;100.00;154575.78;5132556;27;20471;-78
2024/02/17 02:27:57;;;;;;;6.60;4.90;;;;;;;12.51;100.00;154573.25;5119391;27;20659;-78
2024/02/17 02:30:23;;;;;;;4.53;4.10;;;;;;;12.51;100.00;154571.94;5122815;27;20459;-78
2024/02/17 02:32:50;;;;;;;4.37;3.80;;;;;;;12.48;100.00;154564.16;5123865;27;20439;-79
2024/02/17 02:35:17;;;;;;;2.80;2.50;;;;;;;12.44;100.00;154553.78;5122017;27;20477;-79
2024/02/17 02:37:43;;;;;;;3.57;2.80;;;;;;;12.30;100.00;154517.47;5119126;27;20448;-79
2024/02/17 02:40:10;;;;;;;7.10;3.30;;;;;;;12.18;100.00;154488.94;5117040;27;20478;-79
2024/02/17 02:42:37;;;;;;;5.33;3.30;;;;;;;12.13;100.00;154475.97;5127645;27;20567;-79
2024/02/17 02:45:06;;;;;;;5.37;3.50;;;;;;;12.05;100.00;154455.25;5125147;27;20446;-78
2024/02/17 02:47:33;;;;;;;5.20;4.07;;;;;;;12.06;100.00;154456.53;5102306;27;20461;-78
2024/02/17 02:50:00;;;;;;;7.30;4.87;;;;;;;12.05;100.00;154453.94;5125434;27;20447;-78
2024/02/17 02:52:26;;;;;;;6.57;5.03;;;;;;;12.01;100.00;154443.59;5128469;27;20491;-78
2024/02/17 02:54:53;;;;;;;6.13;4.33;;;;;;;12.02;100.00;154446.19;5124227;27;20506;-78
2024/02/17 02:57:20;;;;;;;7.23;5.97;;;;;;;12.01;100.00;154444.91;5122195;27;21011;-79
2024/02/17 02:59:46;;;;;;;8.07;5.50;;;;;;;11.96;100.00;154430.63;5126925;27;20995;-79
2024/02/17 03:02:14;;;;;;;7.67;5.13;;;;;;;11.91;100.00;154417.66;5123256;27;20455;-79
2024/02/17 03:04:41;;;;;;;7.60;5.60;;;;;;;11.89;100.00;154412.44;5126523;27;21186;-79
2024/02/17 03:07:07;;;;;;;9.20;6.43;;;;;;;11.83;100.00;154398.22;5119194;27;20451;-79
2024/02/17 03:09:34;;;;;;;8.03;5.70;;;;;;;11.80;100.00;154390.44;5128456;27;20472;-79
2024/02/17 03:12:00;;;;;;;9.07;6.40;;;;;;;11.80;100.00;154390.44;5110968;27;20447;-79
2024/02/17 03:14:27;;;;;;;10.57;7.30;;;;;;;11.77;100.00;154382.66;5131184;27;20462;-79
2024/02/17 03:16:54;;;;;;;9.10;6.83;;;;;;;11.73;100.00;154372.28;5123549;27;20859;-79
2024/02/17 03:19:22;;;;;;;8.07;6.40;;;;;;;11.75;100.00;154377.50;5129568;27;20443;-79
2024/02/17 03:21:48;;;;;;;9.80;6.20;;;;;;;11.73;100.00;154372.28;5127992;27;21005;-79
2024/02/17 03:24:14;;;;;;;8.33;6.33;;;;;;;11.69;100.00;154360.63;5124505;27;21088;-79
2024/02/17 03:26:41;;;;;;;11.73;7.40;;;;;;;11.66;100.00;154354.09;5127053;27;20470;-78
2024/02/17 03:29:08;;;;;;;11.47;8.40;;;;;;;11.64;100.00;154348.94;5124162;27;20492;-79
2024/02/17 03:31:34;;;;;;;10.30;7.87;;;;;;;11.65;100.00;154350.22;5125233;27;20455;-79
2024/02/17 03:34:05;;;;;;;10.77;8.50;;;;;;;11.61;100.00;154341.16;5129088;27;22797;-79
2024/02/17 03:36:33;;;;;;;11.00;8.10;;;;;;;11.54;100.00;154323.03;5122913;27;20484;-79
2024/02/17 03:38:59;;;;;;;11.67;9.10;;;;;;;11.57;100.00;154330.75;5128076;27;21040;-79
2024/02/17 03:41:28;;;;;;;13.70;8.50;;;;;;;11.57;100.00;154330.75;5127684;27;20478;-79
2024/02/17 03:43:54;;;;;;;9.77;8.00;;;;;;;11.57;100.00;154332.06;5129734;27;20447;-79
2024/02/17 03:46:21;;;;;;;11.13;8.23;;;;;;;11.57;100.00;154330.75;5129191;27;20876;-78
2024/02/17 03:48:47;;;;;;;9.20;7.40;;;;;;;11.54;100.00;154323.03;5116295;27;20440;-78
2024/02/17 03:51:14;;;;;;;12.40;8.80;;;;;;;11.52;100.00;154319.09;5127999;27;20842;-78
2024/02/17 03:53:42;;;;;;;12.53;9.00;;;;;;;11.56;100.00;154329.50;5123187;27;20470;-78
2024/02/17 03:56:08;;;;;;;11.80;8.73;;;;;;;11.53;100.00;154321.72;5122102;27;20507;-78
2024/02/17 03:58:35;;;;;;;11.00;7.20;;;;;;;11.49;100.00;154310.06;5125716;27;20454;-78
2024/02/17 04:01:01;;;;;;;11.90;9.23;;;;;;;11.51;100.00;154315.25;5126725;27;20567;-78
2024/02/17 04:03:29;;;;;;;13.40;8.97;;;;;;;11.49;100.00;154310.06;5135783;27;20503;-78
2024/02/17 04:05:56;;;;;;;11.20;7.37;;;;;;;11.47;100.00;154304.84;5128159;27;20456;-78
2024/02/17 04:08:22;;;;;;;11.43;8.30;;;;;;;11.45;100.00;154299.69;5124354;27;20455;-78
2024/02/17 04:10:50;;;;;;;10.63;8.33;;;;;;;11.40;100.00;154288.03;5107127;27;20819;-78
2024/02/17 04:13:17;;;;;;;12.57;9.10;;;;;;;11.36;100.00;154277.63;5122482;27;20447;-78
2024/02/17 04:15:44;;;;;;;11.43;9.30;;;;;;;11.38;100.00;154281.56;5126021;27;20451;-77
2024/02/17 04:18:11;;;;;;;11.50;9.20;;;;;;;11.35;100.00;154273.78;5125212;27;20451;-78
2024/02/17 04:20:38;;;;;;;10.47;8.40;;;;;;;11.32;100.00;154266.00;5121875;27;20823;-78
2024/02/17 04:23:05;;;;;;;12.40;8.37;;;;;;;11.38;100.00;154281.56;5126900;27;20454;-78
2024/02/17 04:25:31;;;;;;;15.10;8.87;;;;;;;11.34;100.00;154271.16;5124115;27;20459;-78
2024/02/17 04:27:59;;;;;;;10.87;7.90;;;;;;;11.26;100.00;154250.44;5120582;27;20537;-78
2024/02/17 04:30:26;;;;;;;10.50;8.20;;;;;;;11.26;100.00;154250.44;5122220;27;20717;-78
2024/02/17 04:32:53;;;;;;;11.00;7.97;;;;;;;11.27;100.00;154253.03;5117393;27;20447;-78
2024/02/17 04:35:19;;;;;;;9.97;7.13;;;;;;;11.28;100.00;154255.66;5128100;27;20512;-78
2024/02/17 04:37:46;;;;;;;8.40;6.10;;;;;;;11.25;100.00;154249.13;5126593;27;21948;-77
2024/02/17 04:40:13;;;;;;;9.43;6.47;;;;;;;11.21;100.00;154238.78;5124269;27;20477;-78
2024/02/17 04:42:39;;;;;;;8.87;5.70;;;;;;;11.24;100.00;154246.56;5145061;27;20455;-77
2024/02/17 04:45:09;;;;;;;7.27;5.53;;;;;;;11.18;100.00;154229.72;5129004;27;20989;-78
2024/02/17 04:47:35;;;;;;;5.20;4.40;;;;;;;11.16;100.00;154224.53;5127517;27;20448;-77
2024/02/17 04:50:02;;;;;;;6.07;4.50;;;;;;;11.15;100.00;154223.22;5147902;27;20438;-77
2024/02/17 04:52:28;;;;;;;5.87;4.53;;;;;;;11.15;100.00;154221.94;5129186;27;20490;-77
2024/02/17 04:54:55;;;;;;;6.70;4.73;;;;;;;11.15;100.00;154221.94;5126959;27;20494;-77
2024/02/17 04:57:21;;;;;;;8.13;5.50;;;;;;;11.14;100.00;154220.66;5125384;27;20455;-78
2024/02/17 04:59:48;;;;;;;9.37;6.43;;;;;;;11.14;100.00;154219.38;5126667;27;20467;-78
2024/02/17 05:02:16;;;;;;;10.83;7.57;;;;;;;11.14;100.00;154219.38;5117876;27;20563;-77
2024/02/17 05:04:42;;;;;;;9.50;6.53;;;;;;;11.14;100.00;154219.38;5136486;27;21332;-78
2024/02/17 05:07:11;;;;;;;9.87;7.37;;;;;;;11.10;100.00;154208.97;5121214;27;20843;-78
2024/02/17 05:09:38;;;;;;;14.40;8.60;;;;;;;11.10;100.00;154208.97;5102456;27;20447;-77
2024/02/17 05:12:05;;;;;;;12.80;9.37;;;;;;;11.07;100.00;154201.25;5129461;27;20435;-77
2024/02/17 05:14:36;;;;;;;14.43;9.60;;;;;;;11.12;100.00;154214.19;5125967;27;20456;-77
2024/02/17 05:17:03;;;;;;;13.60;9.77;;;;;;;11.12;100.00;154214.19;5133519;27;20455;-77
2024/02/17 05:19:31;;;;;;;14.17;11.27;;;;;;;11.11;100.00;154211.59;5121409;27;20881;-77
2024/02/17 05:21:58;;;;;;;14.07;10.47;;;;;;;11.08;100.00;154203.81;5118693;27;20514;-77
2024/02/17 05:24:24;;;;;;;16.80;11.40;;;;;;;11.09;100.00;154206.41;5127056;27;20850;-78
2024/02/17 05:26:51;;;;;;;13.87;10.10;;;;;;;11.07;100.00;154201.25;5127626;27;20450;-77
2024/02/17 05:29:18;;;;;;;17.00;10.27;;;;;;;11.05;100.00;154196.03;5124899;27;20447;-77
2024/02/17 05:31:45;;;;;;;14.37;9.13;;;;;;;11.04;100.00;154193.47;5121813;27;20467;-77
2024/02/17 05:34:11;;;;;;;15.90;9.67;;;;;;;11.00;100.00;154184.38;5120638;27;20436;-77
2024/02/17 05:36:39;;;;;;;14.40;9.77;;;;;;;10.97;100.00;154177.91;5125616;27;20455;-77
2024/02/17 05:39:07;;;;;;;14.57;10.70;;;;;;;10.96;100.00;154175.31;5125550;27;20459;-77
2024/02/17 05:41:34;;;;;;;16.80;10.93;;;;;;;10.98;100.00;154180.53;5116239;27;20497;-77
2024/02/17 05:44:00;;;;;;;14.37;10.57;;;;;;;10.95;100.00;154171.44;5124272;27;20443;-77
2024/02/17 05:46:27;;;;;;;14.33;9.67;;;;;;;10.96;100.00;154175.31;5121550;27;20522;-77
2024/02/17 05:48:53;;;;;;;12.67;9.63;;;;;;;10.94;100.00;154170.13;5120260;27;20509;-77
2024/02/17 05:51:20;;;;;;;14.73;9.93;;;;;;;10.92;100.00;154163.66;5123878;27;20435;-77
2024/02/17 05:53:48;;;;;;;17.07;10.70;;;;;;;10.89;100.00;154155.88;5107185;27;20551;-77
2024/02/17 05:56:14;;;;;;;15.90;11.00;;;;;;;10.88;100.00;154154.56;5123932;27;20459;-77
2024/02/17 05:58:42;;;;;;;17.20;11.07;;;;;;;10.88;100.00;154154.56;5116358;27;20470;-77
2024/02/17 06:01:09;;;;;;;16.73;11.70;;;;;;;10.86;100.00;154148.09;5116047;27;20505;-77
2024/02/17 06:03:35;;;;;;;17.00;10.13;;;;;;;10.89;100.00;154155.88;5102138;27;20559;-77
2024/02/17 06:06:03;;;;;;;18.30;11.17;;;;;;;10.83;100.00;154141.63;5116498;27;21304;-77
2024/02/17 06:08:30;;;;;;;16.37;11.10;;;;;;;10.81;100.00;154136.47;5132566;27;20455;-77
2024/02/17 06:10:58;;;;;;;15.97;10.57;;;;;;;10.78;100.00;154127.38;5136188;27;20447;-77
2024/02/17 06:13:25;;;;;;;17.40;10.80;;;;;;;10.73;100.00;154115.75;5127481;27;20506;-77
2024/02/17 06:15:51;;;;;;;19.93;12.23;;;;;;;10.75;100.00;154119.66;5133727;27;20496;-77
2024/02/17 06:21:13;;;;;;;16.33;11.33;;;;;;;10.70;100.00;154107.97;5133767;27;20561;-76
2024/02/17 06:23:39;;;;;;;18.57;12.40;;;;;;;10.69;100.00;154105.41;5127624;27;20462;-76
2024/02/17 06:26:08;;;;;;;17.50;12.00;;;;;;;10.67;100.00;154098.94;5130681;27;20454;-77
2024/02/17 06:28:34;;;;;;;15.67;11.40;;;;;;;10.65;100.00;154093.72;5128914;27;21007;-77
2024/02/17 06:31:01;;;;;;;17.07;11.93;;;;;;;10.58;100.00;154076.91;5133309;27;20455;-77
2024/02/17 06:33:31;;;;;;;16.83;10.40;;;;;;;10.58;100.00;154076.91;5130853;27;20727;-77
2024/02/17 06:35:57;;;;;;;17.23;12.67;;;;;;;10.60;100.00;154082.06;5116584;27;20454;-77
2024/02/17 06:38:24;;;;;;;20.47;13.00;;;;;;;10.58;100.00;154076.91;5134745;27;20458;-77
2024/02/17 06:40:50;;;;;;;19.57;12.40;;;;;;;10.51;100.00;154058.75;5134383;27;20607;-77
2024/02/17 06:43:18;;;;;;;18.10;12.90;;;;;;;10.49;100.00;154053.59;5136174;27;20486;-77
2024/02/17 06:45:45;;;;;;;15.10;11.17;;;;;;;10.44;100.00;154040.63;5146822;27;20468;-77
2024/02/17 06:48:12;;;;;;;18.07;11.37;;;;;;;10.42;100.00;154034.16;5130416;27;20451;-77
2024/02/17 06:50:37;;;;;;;18.47;12.83;;;;;;;10.39;100.00;154027.69;5133515;27;20454;-77
2024/02/17 06:53:05;;;;;;;16.37;11.40;;;;;;;10.36;100.00;154019.94;5125321;27;20475;-77
2024/02/17 06:55:31;;;;;;;13.97;10.57;;;;;;;10.34;100.00;154014.75;5109549;27;20202;-77
2024/02/17 06:57:58;;;;;;;17.03;12.10;;;;;;;10.33;100.00;154012.16;5132589;27;20455;-77
2024/02/17 07:00:25;;;;;;;16.67;10.20;;;;;;;10.29;100.00;154001.81;5131191;27;20462;-77
2024/02/17 07:02:52;;;;;;;17.70;11.80;;;;;;;10.27;100.00;153996.66;5131199;27;20530;-77
2024/02/17 07:05:18;;;;;;;14.77;10.50;;;;;;;10.26;100.00;153994.03;5127099;27;20487;-77
2024/02/17 07:07:45;;;;;;;14.37;9.93;;;;;;;10.25;100.00;153991.44;5131190;27;20439;-77
2024/02/17 07:10:14;;;;;;;17.10;12.33;;;;;;;10.28;100.00;153999.22;5132622;27;20458;-78
2024/02/17 07:12:41;;;;;;;14.90;10.57;;;;;;;10.28;100.00;153999.22;5132059;27;20455;-78
2024/02/17 07:15:08;;;;;;;15.13;10.10;;;;;;;10.34;100.00;154014.75;5134340;27;20463;-78
2024/02/17 07:17:36;;;;;;;18.87;11.40;;;;;;;10.39;100.00;154027.69;5127533;27;20451;-79
2024/02/17 07:20:04;;;;;;;20.07;12.23;;;;;;;10.44;100.00;154040.63;5115631;27;20487;-78
2024/02/17 07:22:31;;;;;;;16.10;11.73;;;;;;;10.47;100.00;154048.41;5131757;27;20474;-77
2024/02/17 07:24:58;;;;;;;16.47;10.40;;;;;;;10.47;100.00;154048.41;5113665;27;20458;-77
2024/02/17 07:27:27;;;;;;;14.63;10.03;;;;;;;10.48;100.00;154051.03;5131534;27;20561;-77
2024/02/17 07:29:53;;;;;;;17.63;11.47;;;;;;;10.49;100.00;154052.28;5135860;27;20566;-77
2024/02/17 07:32:22;;;;;;;15.80;10.13;;;;;;;10.70;100.00;154107.97;5131621;27;20451;-77
2024/02/17 07:34:51;;;;;;;17.80;11.47;;;;;;;10.99;100.00;154181.78;5132500;27;20442;-77
2024/02/17 07:37:19;;;;;;;14.97;10.80;;;;;;;11.26;100.00;154251.75;5130005;27;20444;-77
2024/02/17 07:39:46;;;;;;;15.83;11.00;;;;;;;11.69;100.00;154361.94;5132390;27;21106;-77
2024/02/17 07:42:12;;;;;;;19.23;11.90;;;;;;;11.88;100.00;154409.88;5132103;27;20993;-77
2024/02/17 07:44:40;;;;;;;14.10;10.33;;;;;;;11.74;100.00;154374.88;5129296;27;20451;-77
2024/02/17 07:47:07;;;;;;;14.10;10.27;;;;;;;11.86;100.00;154405.97;5128169;27;20455;-77
2024/02/17 07:49:33;;;;;;;15.77;10.57;;;;;;;12.42;100.00;154549.88;5134724;27;20468;-77
2024/02/17 07:52:01;;;;;;;16.93;11.20;;;;;;;12.70;100.00;154621.22;5103837;27;20450;-77
2024/02/17 07:54:28;;;;;;;16.03;11.00;;;;;;;13.12;100.00;154730.22;5121097;27;20442;-78
2024/02/17 07:56:54;;;;;;;15.37;8.97;;;;;;;13.36;99.26;154792.53;5138886;27;20458;-78
2024/02/17 07:59:21;;;;;;;12.87;9.67;;;;;;;13.84;97.29;154914.50;5136652;27;20458;-77
2024/02/17 08:01:47;;;;;;;13.47;9.10;;;;;;;14.04;93.37;154966.41;5136188;27;20502;-77
2024/02/17 08:04:14;;;;;;;13.07;7.93;;;;;;;14.07;91.58;154972.91;5138026;27;20455;-77
2024/02/17 08:06:40;;;;;;;12.50;8.00;;;;;;;14.37;92.23;155052.19;5137454;27;20448;-77
2024/02/17 08:09:08;;;;;;;12.50;8.50;;;;;;;14.75;90.45;155148.25;5134260;27;20861;-78
2024/02/17 08:11:35;;;;;;;12.17;9.03;;;;;;;14.80;87.63;155161.31;5138108;27;20523;-77
2024/02/17 08:14:02;;;;;;;12.57;8.80;;;;;;;14.12;88.88;154987.19;5135564;27;20477;-78
2024/02/17 08:16:28;;;;;;;12.40;9.50;;;;;;;13.53;91.79;154835.31;5137629;27;20446;-77
2024/02/17 08:18:55;;;;;;;13.53;8.90;;;;;;;13.10;95.41;154725.06;5134657;27;20459;-78
2024/02/17 08:21:21;;;;;;;10.70;7.63;;;;;;;12.86;99.51;154662.72;5138746;27;20535;-77
2024/02/17 08:23:48;;;;;;;14.87;9.97;;;;;;;12.76;100.00;154636.81;5138383;27;20797;-77
2024/02/17 08:26:17;;;;;;;12.30;8.60;;;;;;;12.61;100.00;154599.16;5136542;27;20925;-78
2024/02/17 08:28:44;;;;;;;12.33;9.00;;;;;;;12.48;100.00;154564.16;5137392;27;21016;-77
2024/02/17 08:31:10;;;;;;;12.30;9.17;;;;;;;12.43;100.00;154552.50;5139350;27;20538;-78
2024/02/17 08:33:37;;;;;;;11.80;8.13;;;;;;;12.34;100.00;154527.88;5119080;27;20510;-78
2024/02/17 08:36:04;;;;;;;14.40;8.30;;;;;;;12.18;100.00;154488.94;5137812;27;20569;-78
2024/02/17 08:38:30;;;;;;;10.47;8.10;;;;;;;12.16;100.00;154482.47;5133811;27;20516;-78
2024/02/17 08:40:57;;;;;;;16.13;10.57;;;;;;;12.17;100.00;154486.38;5138904;27;20447;-77
2024/02/17 08:43:25;;;;;;;13.30;9.27;;;;;;;12.10;100.00;154468.19;5139585;27;20459;-78
2024/02/17 08:45:52;;;;;;;14.10;9.20;;;;;;;12.02;100.00;154447.44;5136304;27;20459;-77
2024/02/17 08:48:19;;;;;;;13.93;8.97;;;;;;;12.07;100.00;154459.16;5134037;27;20450;-77
2024/02/17 08:50:46;;;;;;;13.97;10.80;;;;;;;12.08;100.00;154461.72;5136185;27;20453;-77
2024/02/17 08:53:12;;;;;;;14.13;10.40;;;;;;;12.10;100.00;154466.88;5131213;27;20882;-78
2024/02/17 08:55:39;;;;;;;14.70;9.97;;;;;;;12.10;100.00;154468.19;5137693;27;20525;-77
2024/02/17 08:58:06;;;;;;;13.00;9.33;;;;;;;12.05;100.00;154455.25;5136747;27;20462;-77
2024/02/17 09:00:36;;;;;;;18.77;11.60;;;;;;;12.11;100.00;154470.81;5137604;27;20447;-78
2024/02/17 09:03:02;;;;;;;12.27;10.27;;;;;;;12.14;100.00;154478.59;5136955;27;20570;-77
2024/02/17 09:05:29;;;;;;;15.57;12.27;;;;;;;12.26;100.00;154507.13;5134178;27;20516;-77
2024/02/17 09:07:56;;;;;;;13.07;9.53;;;;;;;12.42;100.00;154549.88;5135826;27;20484;-77
2024/02/17 09:10:22;;;;;;;15.40;11.37;;;;;;;12.49;100.00;154568.06;5135347;27;20448;-77
2024/02/17 09:12:49;;;;;;;16.50;11.53;;;;;;;12.59;100.00;154592.69;5136266;27;20541;-77
2024/02/17 09:15:16;;;;;;;15.00;10.97;;;;;;;12.68;100.00;154616.03;5136674;27;20455;-78
2024/02/17 09:17:44;;;;;;;16.97;10.27;;;;;;;12.66;100.00;154612.13;5136976;27;20442;-77
2024/02/17 09:20:11;;;;;;;16.20;9.97;;;;;;;12.67;100.00;154613.44;5132550;27;20458;-78
2024/02/17 09:22:38;;;;;;;16.97;9.80;;;;;;;12.62;100.00;154600.47;5132742;27;20471;-78
2024/02/17 09:25:05;;;;;;;12.57;8.40;;;;;;;12.64;100.00;154605.66;5135304;27;20454;-77
2024/02/17 09:27:32;;;;;;;11.00;8.33;;;;;;;12.63;100.00;154604.34;5132170;27;20478;-78
2024/02/17 09:29:58;;;;;;;11.73;9.47;;;;;;;12.59;100.00;154592.69;5137143;27;20447;-77
2024/02/17 09:32:25;;;;;;;10.83;8.40;;;;;;;12.50;100.00;154569.31;5133055;27;20890;-77
2024/02/17 09:34:54;;;;;;;10.60;8.60;;;;;;;12.49;100.00;154568.06;5137796;27;20458;-77
2024/02/17 09:37:20;;;;;;;12.53;10.37;;;;;;;12.52;100.00;154575.78;5134367;27;20500;-78
2024/02/17 09:39:47;;;;;;;12.90;9.20;;;;;;;12.50;100.00;154569.31;5135200;27;20546;-78
2024/02/17 09:42:14;;;;;;;12.20;9.67;;;;;;;12.47;100.00;154561.59;5136410;27;20615;-78
2024/02/17 09:44:41;;;;;;;12.07;9.50;;;;;;;12.48;100.00;154565.44;5134412;27;20476;-77
2024/02/17 09:47:07;;;;;;;13.20;9.40;;;;;;;12.51;100.00;154573.25;5134573;27;20537;-78
2024/02/17 09:49:36;;;;;;;10.40;7.97;;;;;;;12.53;100.00;154578.41;5135918;27;21314;-77
2024/02/17 09:52:05;;;;;;;14.93;9.97;;;;;;;12.48;100.00;154565.44;5134590;27;20545;-77
2024/02/17 09:54:32;;;;;;;11.80;9.60;;;;;;;12.43;100.00;154551.19;5131212;27;20452;-77
2024/02/17 09:57:00;;;;;;;11.47;9.40;;;;;;;12.41;98.60;154547.31;5117542;27;20961;-77
2024/02/17 09:59:27;;;;;;;12.90;9.13;;;;;;;12.51;100.00;154573.25;5134880;27;20442;-77
2024/02/17 10:01:53;;;;;;;11.00;9.40;;;;;;;12.50;100.00;154570.63;5132797;27;21008;-77
2024/02/17 10:04:20;;;;;;;11.00;9.07;;;;;;;12.51;100.00;154573.25;5137482;27;20443;-77
2024/02/17 10:06:58;;;;;;;10.63;8.87;;;;;;;12.58;100.00;154590.06;5137450;27;20860;-78
2024/02/17 10:09:28;;;;;;;8.50;6.90;;;;;;;12.52;99.32;154574.53;5137477;27;20522;-77
2024/02/17 10:11:55;;;;;;;11.07;8.20;;;;;;;12.30;95.11;154517.47;5134221;27;20443;-77
2024/02/17 10:14:23;;;;;;;12.10;8.47;;;;;;;12.15;97.82;154481.16;5119093;27;20832;-78
2024/02/17 10:16:57;;;;;;;8.90;8.00;;;;;;;12.18;99.53;154488.94;5136369;27;20566;-78
2024/02/17 10:19:24;;;;;;;10.67;8.67;;;;;;;12.25;100.00;154504.50;5136832;27;20438;-77
2024/02/17 10:21:50;;;;;;;13.27;8.43;;;;;;;12.23;100.00;154500.66;5133714;27;20527;-78
2024/02/17 10:24:17;;;;;;;11.37;7.90;;;;;;;12.07;97.67;154459.16;5134716;27;20446;-77
2024/02/17 10:26:51;;;;;;;9.00;6.87;;;;;;;12.07;98.29;154460.41;5115099;27;20454;-79
2024/02/17 10:29:18;;;;;;;9.17;7.17;;;;;;;12.11;100.00;154469.50;5132634;27;20442;-89
2024/02/17 10:31:49;;;;;;;15.27;9.60;;;;;;;12.10;97.75;154466.88;5135263;27;20454;-89
2024/02/17 10:34:16;;;;;;;11.23;8.70;;;;;;;12.10;98.27;154468.19;5132556;27;20542;-78
2024/02/17 10:36:45;;;;;;;9.80;7.23;;;;;;;12.18;100.00;154487.63;5135769;27;20576;-78
2024/02/17 10:39:12;;;;;;;10.83;8.00;;;;;;;12.26;100.00;154507.13;5128615;27;20846;-78
2024/02/17 10:41:39;;;;;;;11.23;8.60;;;;;;;12.33;100.00;154525.25;5146175;27;20455;-78
2024/02/17 10:44:07;;;;;;;12.70;9.17;;;;;;;12.42;100.00;154548.56;5124402;27;20498;-78
2024/02/17 10:46:35;;;;;;;12.13;7.70;;;;;;;12.42;100.00;154548.56;5108672;27;20467;-78
2024/02/17 10:49:07;;;;;;;8.77;7.00;;;;;;;12.47;99.69;154561.59;5133214;27;20450;-78
2024/02/17 10:51:36;;;;;;;8.70;7.00;;;;;;;12.49;98.54;154566.75;5101973;27;20443;-78
2024/02/17 10:54:05;;;;;;;9.67;7.83;;;;;;;12.53;97.88;154577.09;5133070;27;20443;-78
2024/02/17 10:56:33;;;;;;;9.20;7.63;;;;;;;12.57;99.10;154587.50;5130742;27;20461;-78
2024/02/17 10:59:02;;;;;;;10.10;7.50;;;;;;;12.58;97.98;154591.38;5135197;27;20817;-78
2024/02/17 11:01:31;;;;;;;8.57;6.43;;;;;;;12.60;98.73;154596.56;5135413;27;20925;-79
2024/02/17 11:03:58;;;;;;;9.57;6.90;;;;;;;12.60;94.25;154595.28;5128949;27;20466;-78
2024/02/17 11:06:26;;;;;;;8.77;6.70;;;;;;;12.67;97.04;154614.75;5134189;27;20459;-78
2024/02/17 11:08:52;;;;;;;7.87;5.73;;;;;;;12.61;89.10;154597.84;5134759;27;20481;-78
2024/02/17 11:11:23;;;;;;;7.47;6.23;;;;;;;12.53;86.61;154578.41;5134710;27;20995;-78
2024/02/17 11:13:50;;;;;;;9.30;7.33;;;;;;;12.53;89.79;154577.09;5136534;27;21011;-78